Holbeach, United Kingdom
Current Conditions -  °F | °C
As of 1:50 AM on Saturday 20 Dec 2014 (Local Time) from EGXC Reporting Station
Scattered Clouds Scattered Clouds  
Wind Chill:   Ceiling: Unl
Heat Index:   Visibility: 6mi
Dew Point:   Wind: 22mph
Humidity: 81%   Direction: 240°WSW
Pressure: 30.03"   Gusts: NA
Location:  52.8°N, 0.01°E
Report Text: EGXC 200150Z 24019KT 9999 SCT032 06/03 Q1017 BLU
Loading
Personal Weather Stations






























Interactive Weather Map New forecast layout! Learn more

10-Day Weather Forecast

Advertisements
Track Severe Weather on mobile